createdAt,value
2022-12-04T00:00:35.277Z,5.91
2022-12-04T00:03:04.964Z,5.91
2022-12-04T00:05:34.541Z,5.94
2022-12-04T00:08:04.154Z,5.94
2022-12-04T00:10:33.714Z,5.94
2022-12-04T00:13:04.102Z,5.89
2022-12-04T00:15:35.566Z,6.01
2022-12-04T00:18:05.446Z,5.89
2022-12-04T00:20:35.104Z,5.90
2022-12-04T00:23:04.673Z,5.86
2022-12-04T00:25:39.246Z,5.82
2022-12-04T00:28:10.669Z,5.91
2022-12-04T00:30:43.849Z,5.91
2022-12-04T00:33:13.525Z,5.93
2022-12-04T00:35:43.066Z,5.95
2022-12-04T00:38:12.690Z,5.89
2022-12-04T00:40:49.422Z,5.92
2022-12-04T00:43:19.176Z,5.91
2022-12-04T00:45:50.211Z,5.80
2022-12-04T00:48:19.998Z,5.81
2022-12-04T00:50:49.838Z,5.83
2022-12-04T00:53:19.350Z,5.93
2022-12-04T00:55:48.932Z,5.83
2022-12-04T00:58:18.472Z,5.75
2022-12-04T01:00:48.115Z,5.86
2022-12-04T01:03:19.220Z,5.84
2022-12-04T01:05:48.956Z,5.87
2022-12-04T01:08:18.528Z,5.88
2022-12-04T01:10:48.173Z,5.89
2022-12-04T01:13:18.512Z,5.93
2022-12-04T01:15:49.292Z,5.87
2022-12-04T01:18:20.240Z,5.83
2022-12-04T01:20:50.474Z,5.88
2022-12-04T01:23:20.557Z,5.95
2022-12-04T01:25:54.096Z,5.93
2022-12-04T01:28:23.851Z,5.86
2022-12-04T01:31:00.653Z,5.89
2022-12-04T01:33:32.451Z,5.90
2022-12-04T01:36:02.773Z,5.85
2022-12-04T01:38:32.674Z,5.85
2022-12-04T01:41:02.203Z,5.88
2022-12-04T01:43:33.091Z,5.85
2022-12-04T01:46:02.997Z,5.83
2022-12-04T01:48:35.196Z,5.84
2022-12-04T01:51:08.193Z,5.89
2022-12-04T01:53:39.573Z,5.82
2022-12-04T01:56:09.743Z,5.84
2022-12-04T01:58:42.574Z,5.81
2022-12-04T02:01:12.182Z,5.84
2022-12-04T02:03:43.669Z,5.87
2022-12-04T02:06:13.415Z,5.81
2022-12-04T02:08:42.927Z,5.88
2022-12-04T02:11:18.995Z,5.86
2022-12-04T02:13:53.748Z,5.82
2022-12-04T02:16:26.341Z,5.90
2022-12-04T02:19:00.247Z,5.84
2022-12-04T02:21:33.064Z,5.92
2022-12-04T02:24:17.861Z,5.92
2022-12-04T02:26:50.463Z,5.89
2022-12-04T02:29:28.072Z,5.91
2022-12-04T02:32:00.680Z,5.81
2022-12-04T02:34:31.534Z,5.88
2022-12-04T02:37:04.029Z,5.88
2022-12-04T02:39:36.652Z,5.82
2022-12-04T02:42:09.409Z,5.78
2022-12-04T02:44:42.939Z,5.81
2022-12-04T02:47:14.325Z,5.80
2022-12-04T02:49:46.157Z,5.78
2022-12-04T02:52:17.339Z,5.83
2022-12-04T02:54:49.373Z,5.78
2022-12-04T02:57:21.493Z,5.77
2022-12-04T02:59:53.895Z,5.86
2022-12-04T03:02:26.455Z,5.83
2022-12-04T03:04:57.253Z,5.86
2022-12-04T03:07:31.684Z,5.89
2022-12-04T03:10:02.706Z,5.82
2022-12-04T03:12:38.644Z,5.74
2022-12-04T03:15:13.653Z,5.82
2022-12-04T03:17:47.617Z,5.83
2022-12-04T03:20:18.542Z,5.84
2022-12-04T03:22:51.436Z,5.79
2022-12-04T03:25:20.955Z,5.81
2022-12-04T03:27:53.098Z,5.82
2022-12-04T03:30:24.451Z,5.86
2022-12-04T03:32:56.533Z,5.88
2022-12-04T03:35:27.815Z,5.91
2022-12-04T03:37:59.961Z,5.94
2022-12-04T03:40:31.565Z,5.89
2022-12-04T03:43:05.460Z,5.85
2022-12-04T03:45:41.556Z,5.80
2022-12-04T03:48:16.790Z,5.86
2022-12-04T03:50:53.043Z,5.94
2022-12-04T03:53:26.944Z,5.92
2022-12-04T03:56:01.883Z,5.80
2022-12-04T03:58:33.220Z,5.81
2022-12-04T04:01:05.796Z,5.73
2022-12-04T04:03:36.540Z,5.81
2022-12-04T04:06:10.436Z,5.88
2022-12-04T04:08:41.029Z,5.91
2022-12-04T04:11:13.003Z,5.80
2022-12-04T04:14:03.380Z,5.84
2022-12-04T04:16:54.359Z,5.82
2022-12-04T04:19:42.101Z,5.80
2022-12-04T04:22:29.492Z,5.82
2022-12-04T04:25:02.682Z,5.82
2022-12-04T04:27:32.510Z,5.75
2022-12-04T04:30:02.356Z,5.77
2022-12-04T04:32:36.719Z,5.83
2022-12-04T04:35:10.892Z,5.77
2022-12-04T04:37:45.246Z,5.85
2022-12-04T04:40:15.622Z,5.87
2022-12-04T04:42:50.505Z,5.83
2022-12-04T04:45:23.255Z,5.83
2022-12-04T04:47:56.746Z,5.84
2022-12-04T04:50:26.836Z,5.86
2022-12-04T04:52:59.586Z,5.87
2022-12-04T04:55:29.540Z,5.86
2022-12-04T04:58:07.180Z,5.89
2022-12-04T05:00:37.664Z,5.86
2022-12-04T05:03:08.715Z,5.90
2022-12-04T05:05:38.210Z,5.84
2022-12-04T05:08:07.940Z,5.87
2022-12-04T05:10:37.628Z,5.94
2022-12-04T05:13:08.023Z,5.76
2022-12-04T05:15:38.086Z,5.77
2022-12-04T05:18:09.141Z,5.85
2022-12-04T05:20:38.472Z,5.83
2022-12-04T05:23:08.424Z,5.75
2022-12-04T05:25:38.023Z,5.81
2022-12-04T05:28:07.832Z,5.77
2022-12-04T05:30:37.344Z,5.74
2022-12-04T05:33:06.932Z,5.74
2022-12-04T05:35:37.766Z,5.80
2022-12-04T05:38:07.304Z,5.87
2022-12-04T05:40:37.386Z,5.88
2022-12-04T05:43:06.906Z,5.84
2022-12-04T05:45:36.445Z,5.77
2022-12-04T05:48:06.109Z,5.82
2022-12-04T05:50:37.041Z,5.81
2022-12-04T05:53:06.584Z,5.86
2022-12-04T05:55:36.472Z,5.92
2022-12-04T05:58:05.989Z,5.87
2022-12-04T06:00:35.825Z,5.85
2022-12-04T06:03:05.498Z,5.86
2022-12-04T06:05:35.234Z,5.84
2022-12-04T06:08:06.383Z,5.81
2022-12-04T06:10:35.957Z,5.91
2022-12-04T06:13:05.995Z,5.83
2022-12-04T06:15:38.360Z,5.92
2022-12-04T06:18:08.125Z,5.91
2022-12-04T06:20:37.685Z,5.84
2022-12-04T06:23:08.787Z,5.82
2022-12-04T06:25:38.431Z,5.83
2022-12-04T06:28:08.407Z,5.71
2022-12-04T06:30:38.113Z,5.79
2022-12-04T06:33:07.626Z,5.86
2022-12-04T06:35:37.307Z,5.82
2022-12-04T06:38:08.246Z,5.87
2022-12-04T06:40:40.636Z,5.84
2022-12-04T06:43:10.089Z,5.74
2022-12-04T06:45:39.893Z,5.82
2022-12-04T06:48:09.443Z,5.92
2022-12-04T06:50:39.016Z,5.67
2022-12-04T06:53:10.030Z,5.72
2022-12-04T06:55:39.581Z,5.59
2022-12-04T06:58:09.261Z,5.57
2022-12-04T07:00:39.223Z,5.53
2022-12-04T07:03:09.138Z,5.63
2022-12-04T07:05:38.878Z,5.50
2022-12-04T07:08:08.561Z,5.68
2022-12-04T07:10:40.195Z,5.70
2022-12-04T07:13:10.352Z,5.65
2022-12-04T07:15:40.678Z,5.57
2022-12-04T07:18:11.027Z,5.62
2022-12-04T07:20:41.068Z,5.58
2022-12-04T07:23:10.608Z,5.64
2022-12-04T07:25:41.917Z,5.72
2022-12-04T07:28:11.481Z,5.78
2022-12-04T07:30:41.091Z,5.85
2022-12-04T07:33:11.477Z,5.91
2022-12-04T07:35:41.053Z,5.95
2022-12-04T07:38:10.919Z,5.99
2022-12-04T07:40:41.901Z,5.97
2022-12-04T07:43:11.492Z,6.05
2022-12-04T07:45:41.461Z,6.07
2022-12-04T07:48:11.079Z,6.12
2022-12-04T07:50:42.057Z,6.14
2022-12-04T07:53:12.020Z,6.17
2022-12-04T07:55:43.003Z,6.17
2022-12-04T07:58:12.818Z,6.16
2022-12-04T08:00:42.611Z,6.22
2022-12-04T08:03:12.365Z,6.20
2022-12-04T08:05:41.942Z,6.22
2022-12-04T08:08:11.677Z,6.26
2022-12-04T08:10:41.506Z,6.23
2022-12-04T08:13:13.285Z,6.23
2022-12-04T08:15:43.366Z,6.28
2022-12-04T08:18:13.694Z,6.32
2022-12-04T08:20:43.481Z,6.30
2022-12-04T08:23:13.238Z,6.31
2022-12-04T08:25:43.293Z,6.31
2022-12-04T08:28:14.611Z,6.30
2022-12-04T08:30:44.553Z,6.32
2022-12-04T08:33:15.110Z,6.34
2022-12-04T08:35:45.450Z,6.38
2022-12-04T08:38:15.962Z,6.43
2022-12-04T08:40:46.354Z,6.37
2022-12-04T08:43:17.702Z,6.41
2022-12-04T08:45:55.687Z,6.46
2022-12-04T08:48:26.132Z,6.45
2022-12-04T08:50:56.184Z,6.46
2022-12-04T08:53:25.964Z,6.43
2022-12-04T08:55:56.273Z,6.43
2022-12-04T08:58:28.006Z,6.42
2022-12-04T09:00:58.723Z,6.44
2022-12-04T09:03:31.057Z,6.38
2022-12-04T09:06:02.324Z,6.42
2022-12-04T09:08:33.450Z,6.43
2022-12-04T09:11:04.778Z,6.41
2022-12-04T09:13:37.575Z,6.36
2022-12-04T09:16:09.463Z,6.36
2022-12-04T09:18:40.982Z,6.41
2022-12-04T09:21:13.479Z,6.48
2022-12-04T09:23:44.454Z,6.52
2022-12-04T09:26:20.478Z,6.49
2022-12-04T09:28:53.117Z,6.48
2022-12-04T09:31:24.175Z,6.42
2022-12-04T09:33:55.109Z,6.42
2022-12-04T09:36:25.794Z,6.41
2022-12-04T09:38:56.470Z,6.36
2022-12-04T09:41:35.998Z,6.41
2022-12-04T09:44:29.768Z,6.42
2022-12-04T09:47:02.646Z,6.49
2022-12-04T09:49:38.798Z,6.43
2022-12-04T09:52:11.266Z,6.49
2022-12-04T09:54:44.789Z,6.54
2022-12-04T09:57:18.410Z,6.54
2022-12-04T09:59:51.370Z,6.56
2022-12-04T10:02:30.772Z,6.54
2022-12-04T10:05:01.966Z,6.61
2022-12-04T10:07:34.675Z,6.50
2022-12-04T10:10:08.468Z,6.59
2022-12-04T10:12:44.205Z,6.58
2022-12-04T10:15:24.133Z,6.62
2022-12-04T10:18:15.866Z,6.66
2022-12-04T10:20:56.346Z,6.66
2022-12-04T10:23:33.667Z,6.68
2022-12-04T10:26:07.948Z,6.69
2022-12-04T10:28:41.052Z,6.68
2022-12-04T10:31:16.236Z,6.70
2022-12-04T10:33:48.973Z,6.67
2022-12-04T10:36:20.850Z,6.69
2022-12-04T10:38:54.563Z,6.69
2022-12-04T10:41:27.545Z,6.63
2022-12-04T10:43:58.803Z,6.61
2022-12-04T10:46:32.819Z,6.61
2022-12-04T10:49:04.787Z,6.66
2022-12-04T10:51:40.288Z,6.62
2022-12-04T10:54:18.268Z,6.53
2022-12-04T10:56:53.243Z,6.53
2022-12-04T10:59:24.674Z,6.61
2022-12-04T11:02:06.701Z,6.63
2022-12-04T11:04:38.532Z,6.63
2022-12-04T11:07:11.500Z,6.60
2022-12-04T11:09:42.487Z,6.59
2022-12-04T11:12:19.481Z,6.60
2022-12-04T11:15:01.180Z,6.65
2022-12-04T11:17:34.483Z,6.66
2022-12-04T11:20:09.062Z,6.64
2022-12-04T11:22:50.239Z,6.70
2022-12-04T11:25:22.467Z,6.66
2022-12-04T11:27:55.018Z,6.75
2022-12-04T11:30:28.115Z,6.83
2022-12-04T11:33:00.000Z,6.82
2022-12-04T11:35:31.226Z,6.76
2022-12-04T11:38:04.597Z,6.78
2022-12-04T11:40:36.381Z,6.77
2022-12-04T11:43:08.605Z,6.76
2022-12-04T11:45:39.699Z,6.75
2022-12-04T11:48:17.361Z,6.65
2022-12-04T11:50:52.056Z,6.63
2022-12-04T11:53:25.578Z,6.58
2022-12-04T11:56:08.278Z,6.49
2022-12-04T11:58:48.598Z,6.48
2022-12-04T12:01:26.777Z,6.43
2022-12-04T12:04:17.843Z,6.47
2022-12-04T12:06:56.253Z,6.36
2022-12-04T12:09:31.956Z,6.38
2022-12-04T12:12:05.109Z,6.37
2022-12-04T12:14:42.202Z,6.35
2022-12-04T12:17:16.809Z,6.37
2022-12-04T12:19:57.514Z,6.33
2022-12-04T12:22:38.372Z,6.32
2022-12-04T12:25:18.033Z,6.33
2022-12-04T12:27:57.854Z,6.41
2022-12-04T12:30:34.390Z,6.35
2022-12-04T12:33:10.315Z,6.38
2022-12-04T12:35:46.372Z,6.41
2022-12-04T12:38:20.227Z,6.44
2022-12-04T12:40:53.143Z,6.44
2022-12-04T12:43:26.855Z,6.43
2022-12-04T12:46:02.779Z,6.43
2022-12-04T12:48:38.110Z,6.44
2022-12-04T12:51:30.696Z,6.52
2022-12-04T12:54:05.822Z,6.61
2022-12-04T12:56:47.782Z,6.55
2022-12-04T12:59:22.947Z,6.51
2022-12-04T13:02:00.571Z,6.48
2022-12-04T13:04:34.530Z,6.43
2022-12-04T13:07:16.563Z,6.52
2022-12-04T13:09:49.588Z,6.47
2022-12-04T13:12:21.813Z,6.50
2022-12-04T13:14:53.077Z,6.47
2022-12-04T13:17:31.147Z,6.39
2022-12-04T13:20:09.540Z,6.38
2022-12-04T13:22:48.057Z,6.45
2022-12-04T13:25:30.064Z,6.37
2022-12-04T13:28:07.541Z,6.41
2022-12-04T13:30:45.757Z,6.41
2022-12-04T13:33:30.136Z,6.40
2022-12-04T13:36:25.214Z,6.42
2022-12-04T13:39:06.195Z,6.44
2022-12-04T13:41:41.100Z,6.38
2022-12-04T13:44:15.596Z,6.31
2022-12-04T13:46:51.732Z,6.40
2022-12-04T13:49:27.282Z,6.34
2022-12-04T13:52:01.361Z,6.36
2022-12-04T13:54:34.956Z,6.42
2022-12-04T13:57:18.976Z,6.42
2022-12-04T13:59:50.118Z,6.38
2022-12-04T14:02:25.380Z,6.34
2022-12-04T14:05:01.405Z,6.34
2022-12-04T14:07:34.245Z,6.32
2022-12-04T14:10:08.523Z,6.28
2022-12-04T14:12:43.356Z,6.36
2022-12-04T14:15:23.079Z,6.33
2022-12-04T14:17:59.146Z,6.42
2022-12-04T14:20:31.844Z,6.47
2022-12-04T14:23:08.843Z,6.45
2022-12-04T14:25:41.257Z,6.41
2022-12-04T14:28:15.087Z,6.42
2022-12-04T14:30:45.300Z,6.42
2022-12-04T14:33:18.903Z,6.39
2022-12-04T14:35:50.797Z,6.44
2022-12-04T14:38:22.092Z,6.50
2022-12-04T14:40:56.286Z,6.47
2022-12-04T14:43:27.003Z,6.45
2022-12-04T14:45:59.723Z,6.46
2022-12-04T14:48:33.933Z,6.37
2022-12-04T14:51:07.413Z,6.40
2022-12-04T14:53:41.534Z,6.37
2022-12-04T14:56:28.757Z,6.40
2022-12-04T14:59:06.115Z,6.36
2022-12-04T15:01:37.639Z,6.34
2022-12-04T15:04:11.560Z,6.20
2022-12-04T15:06:41.359Z,6.26
2022-12-04T15:09:34.809Z,6.35
2022-12-04T15:12:33.180Z,6.34
2022-12-04T15:15:12.465Z,6.35
2022-12-04T15:17:42.270Z,6.34
2022-12-04T15:20:12.761Z,6.31
2022-12-04T15:22:42.333Z,6.36
2022-12-04T15:25:19.510Z,6.24
2022-12-04T15:27:50.361Z,6.33
2022-12-04T15:30:22.498Z,6.34
2022-12-04T15:32:53.888Z,6.35
2022-12-04T15:35:25.722Z,6.38
2022-12-04T15:37:56.101Z,6.33
2022-12-04T15:40:27.023Z,6.32
2022-12-04T15:43:07.093Z,6.31
2022-12-04T15:45:38.762Z,6.34
2022-12-04T15:48:08.305Z,6.38
2022-12-04T15:50:38.157Z,6.39
2022-12-04T15:53:09.000Z,6.40
2022-12-04T15:55:40.876Z,6.42
2022-12-04T15:58:19.712Z,6.41
2022-12-04T16:00:55.059Z,6.36
2022-12-04T16:03:26.505Z,6.26
2022-12-04T16:06:06.868Z,6.31
2022-12-04T16:08:37.626Z,6.28
2022-12-04T16:11:08.214Z,6.30
2022-12-04T16:13:39.633Z,6.32
2022-12-04T16:16:13.782Z,6.30
2022-12-04T16:18:44.327Z,6.36
2022-12-04T16:21:16.204Z,6.34
2022-12-04T16:23:46.029Z,6.22
2022-12-04T16:26:16.505Z,6.19
2022-12-04T16:28:46.089Z,6.26
2022-12-04T16:31:19.409Z,6.20
2022-12-04T16:33:49.039Z,6.24
2022-12-04T16:36:18.733Z,6.22
2022-12-04T16:38:48.416Z,6.24
2022-12-04T16:41:18.824Z,6.32
2022-12-04T16:43:53.437Z,6.16
2022-12-04T16:46:25.226Z,6.15
2022-12-04T16:48:54.939Z,6.21
2022-12-04T16:51:26.045Z,6.17
2022-12-04T16:53:55.831Z,6.17
2022-12-04T16:56:25.526Z,6.17
2022-12-04T16:58:55.185Z,6.16
2022-12-04T17:01:27.440Z,6.17
2022-12-04T17:03:57.409Z,6.19
2022-12-04T17:06:27.086Z,6.18
2022-12-04T17:08:56.912Z,6.17
2022-12-04T17:11:26.601Z,6.21
2022-12-04T17:13:57.052Z,6.16
2022-12-04T17:16:29.533Z,6.18
2022-12-04T17:18:59.392Z,6.18
2022-12-04T17:21:29.196Z,6.12
2022-12-04T17:23:58.686Z,6.16
2022-12-04T17:26:28.421Z,6.17
2022-12-04T17:28:57.892Z,6.15
2022-12-04T17:31:28.917Z,6.20
2022-12-04T17:33:58.578Z,6.20
2022-12-04T17:36:28.561Z,6.23
2022-12-04T17:38:58.909Z,6.20
2022-12-04T17:41:28.869Z,6.09
2022-12-04T17:44:00.332Z,6.16
2022-12-04T17:46:31.769Z,6.18
2022-12-04T17:49:06.623Z,6.10
2022-12-04T17:51:37.075Z,6.10
2022-12-04T17:54:07.195Z,6.09
2022-12-04T17:56:36.806Z,6.18
2022-12-04T17:59:06.940Z,6.21
2022-12-04T18:01:37.894Z,6.18
2022-12-04T18:04:09.185Z,6.14
2022-12-04T18:06:40.196Z,6.17
2022-12-04T18:09:11.425Z,6.18
2022-12-04T18:11:42.067Z,6.16
2022-12-04T18:14:12.938Z,6.15
2022-12-04T18:16:45.299Z,6.23
2022-12-04T18:19:15.981Z,6.28
2022-12-04T18:21:45.634Z,6.30
2022-12-04T18:24:15.344Z,6.24
2022-12-04T18:26:45.652Z,6.25
2022-12-04T18:29:16.322Z,6.28
2022-12-04T18:31:47.651Z,6.27
2022-12-04T18:34:17.804Z,6.20
2022-12-04T18:36:47.527Z,6.21
2022-12-04T18:39:18.254Z,6.26
2022-12-04T18:41:48.258Z,6.23
2022-12-04T18:44:18.610Z,6.23
2022-12-04T18:46:49.964Z,6.27
2022-12-04T18:49:19.969Z,6.29
2022-12-04T18:51:50.368Z,6.30
2022-12-04T18:54:21.622Z,6.26
2022-12-04T18:56:51.805Z,6.20
2022-12-04T18:59:22.747Z,6.25
2022-12-04T19:01:54.427Z,6.20
2022-12-04T19:04:25.300Z,6.17
2022-12-04T19:06:55.565Z,6.12
2022-12-04T19:09:47.406Z,6.20
2022-12-04T19:12:16.870Z,6.27
2022-12-04T19:14:46.915Z,6.21
2022-12-04T19:17:20.174Z,6.22
2022-12-04T19:19:49.896Z,6.27
2022-12-04T19:22:19.467Z,6.23
2022-12-04T19:24:49.122Z,6.27
2022-12-04T19:27:18.822Z,6.17
2022-12-04T19:29:48.832Z,6.20
2022-12-04T19:32:19.841Z,6.19
2022-12-04T19:34:49.744Z,6.15
2022-12-04T19:37:19.617Z,6.12
2022-12-04T19:39:49.267Z,6.19
2022-12-04T19:42:19.039Z,6.17
2022-12-04T19:44:49.829Z,6.22
2022-12-04T19:47:21.618Z,6.23
2022-12-04T19:49:51.610Z,6.23
2022-12-04T19:52:21.575Z,6.20
2022-12-04T19:54:51.366Z,6.14
2022-12-04T19:57:20.940Z,6.07
2022-12-04T19:59:50.784Z,6.09
2022-12-04T20:02:22.105Z,6.10
2022-12-04T20:04:51.946Z,6.16
2022-12-04T20:07:21.644Z,6.15
2022-12-04T20:09:52.568Z,6.14
2022-12-04T20:12:23.213Z,6.08
2022-12-04T20:14:54.093Z,6.12
2022-12-04T20:17:25.618Z,6.15
2022-12-04T20:19:55.629Z,6.15
2022-12-04T20:22:25.659Z,6.19
2022-12-04T20:24:55.580Z,6.16
2022-12-04T20:27:25.413Z,6.18
2022-12-04T20:29:55.742Z,6.19
2022-12-04T20:32:27.040Z,6.18
2022-12-04T20:34:56.739Z,6.13
2022-12-04T20:37:26.345Z,6.15
2022-12-04T20:39:56.341Z,6.16
2022-12-04T20:42:33.123Z,6.19
2022-12-04T20:45:03.452Z,6.12
2022-12-04T20:47:36.373Z,6.13
2022-12-04T20:50:06.537Z,6.09
2022-12-04T20:52:36.159Z,6.12
2022-12-04T20:55:07.005Z,6.14
2022-12-04T20:57:37.520Z,6.17
2022-12-04T21:00:07.832Z,6.13
2022-12-04T21:02:39.165Z,6.10
2022-12-04T21:05:09.085Z,6.09
2022-12-04T21:07:38.780Z,6.08
2022-12-04T21:10:08.851Z,6.10
2022-12-04T21:12:56.921Z,6.14
2022-12-04T21:15:46.047Z,6.17
2022-12-04T21:18:16.973Z,6.04
2022-12-04T21:20:46.530Z,6.10
2022-12-04T21:23:16.121Z,6.14
2022-12-04T21:25:45.945Z,6.03
2022-12-04T21:28:15.540Z,6.07
2022-12-04T21:30:45.091Z,6.17
2022-12-04T21:33:15.125Z,6.19
2022-12-04T21:35:45.993Z,6.10
2022-12-04T21:38:15.841Z,6.06
2022-12-04T21:40:48.971Z,6.12
2022-12-04T21:43:18.474Z,6.21
2022-12-04T21:45:56.960Z,6.17
2022-12-04T21:48:26.477Z,6.09
2022-12-04T21:50:57.846Z,6.19
2022-12-04T21:53:27.561Z,6.22
2022-12-04T21:55:57.283Z,6.09
2022-12-04T21:58:28.508Z,6.09
2022-12-04T22:00:58.189Z,6.14
2022-12-04T22:03:27.709Z,6.17
2022-12-04T22:06:01.897Z,6.12
2022-12-04T22:08:31.514Z,6.09
2022-12-04T22:11:00.972Z,6.09
2022-12-04T22:13:31.042Z,6.18
2022-12-04T22:16:03.378Z,6.17
2022-12-04T22:18:33.607Z,6.21
2022-12-04T22:21:06.469Z,6.18
2022-12-04T22:23:36.293Z,6.16
2022-12-04T22:26:07.055Z,6.07
2022-12-04T22:28:37.125Z,6.08
2022-12-04T22:31:07.951Z,6.17
2022-12-04T22:33:38.219Z,6.16
2022-12-04T22:36:13.036Z,6.19
2022-12-04T22:39:06.006Z,6.20
2022-12-04T22:41:32.421Z,6.18
2022-12-04T22:44:01.957Z,6.05
2022-12-04T22:46:31.981Z,6.13
2022-12-04T22:49:01.759Z,6.12
2022-12-04T22:51:35.977Z,6.10
2022-12-04T22:54:08.006Z,6.14
2022-12-04T22:56:37.576Z,6.17
2022-12-04T22:59:07.163Z,6.19
2022-12-04T23:01:36.860Z,6.08
2022-12-04T23:04:06.405Z,6.13
2022-12-04T23:06:37.324Z,6.10
2022-12-04T23:09:08.316Z,6.14
2022-12-04T23:11:38.567Z,6.11
2022-12-04T23:14:09.884Z,6.09
2022-12-04T23:16:40.394Z,6.12
2022-12-04T23:19:12.221Z,6.08
2022-12-04T23:21:43.509Z,6.10
2022-12-04T23:24:13.484Z,6.11
2022-12-04T23:26:44.092Z,6.07
2022-12-04T23:29:36.902Z,6.07
2022-12-04T23:32:04.014Z,6.05
2022-12-04T23:34:33.677Z,6.03
2022-12-04T23:37:04.568Z,6.08
2022-12-04T23:39:34.124Z,6.05
2022-12-04T23:42:03.585Z,6.03
2022-12-04T23:44:33.090Z,6.03
2022-12-04T23:47:02.716Z,6.06
2022-12-04T23:49:32.288Z,6.06
2022-12-04T23:52:02.008Z,6.06
2022-12-04T23:54:35.050Z,6.02
2022-12-04T23:57:04.608Z,6.06
2022-12-04T23:59:34.217Z,6.00
